createdAt,value
2018-04-22T16:39:36.944Z,951.06
2018-04-22T16:40:37.119Z,951.00
2018-04-22T16:42:43.349Z,951.00
2018-04-22T16:43:31.310Z,950.95
2018-04-22T16:44:31.539Z,950.98
2018-04-22T16:45:31.319Z,950.97
2018-04-22T16:46:32.304Z,950.97
2018-04-22T16:48:54.600Z,950.94
2018-04-22T16:50:01.950Z,950.98
2018-04-22T16:51:47.984Z,950.97
2018-04-22T16:52:47.894Z,950.94
2018-04-22T16:53:48.145Z,950.95
2018-04-22T16:54:48.088Z,950.97
2018-04-22T16:55:48.228Z,950.92
2018-04-22T16:56:48.012Z,950.93
2018-04-22T16:57:47.851Z,950.90
2018-04-22T16:58:47.898Z,950.89
2018-04-22T17:01:41.731Z,950.93
2018-04-22T17:03:52.040Z,950.91
2018-04-22T17:05:01.189Z,950.87
2018-04-22T17:06:54.243Z,950.89
2018-04-22T17:07:45.227Z,950.86
2018-04-22T17:08:45.328Z,950.86
2018-04-22T17:09:55.423Z,950.87
2018-04-22T17:12:31.445Z,950.81
2018-04-22T17:13:30.855Z,950.87
2018-04-22T17:14:30.797Z,950.86
2018-04-22T17:15:31.240Z,950.84
2018-04-22T17:16:30.971Z,950.84
2018-04-22T17:17:30.948Z,950.81
2018-04-22T17:18:30.845Z,950.85
2018-04-22T17:19:30.781Z,950.89
2018-04-22T17:20:30.791Z,950.91
2018-04-22T17:21:30.832Z,950.91
2018-04-22T17:22:30.831Z,950.93
2018-04-22T17:24:53.112Z,950.89
2018-04-22T17:25:53.437Z,950.93
2018-04-22T17:26:53.640Z,950.88
2018-04-22T17:27:53.024Z,950.91
2018-04-22T17:28:53.130Z,950.91
2018-04-22T17:29:53.643Z,950.88
2018-04-22T17:30:52.952Z,950.93
2018-04-22T17:31:53.125Z,950.91
2018-04-22T17:32:52.984Z,950.89
2018-04-22T17:33:52.964Z,950.95
2018-04-22T17:34:53.253Z,950.91
2018-04-22T17:35:53.001Z,950.92
2018-04-22T17:36:53.295Z,950.96
2018-04-22T17:37:53.002Z,950.90
2018-04-22T17:38:53.864Z,950.88
2018-04-22T17:39:53.635Z,950.92
2018-04-22T17:41:03.655Z,950.93
2018-04-22T17:42:46.877Z,950.93
2018-04-22T17:43:46.593Z,950.94
2018-04-22T17:46:09.013Z,950.87
2018-04-22T17:46:58.814Z,950.89
2018-04-22T17:48:07.198Z,950.85
2018-04-22T17:49:54.974Z,950.84
2018-04-22T17:52:46.263Z,950.89
2018-04-22T17:53:46.365Z,950.90
2018-04-22T17:56:08.447Z,950.89
2018-04-22T17:58:33.615Z,950.92
2018-04-22T18:00:56.546Z,950.93
2018-04-22T18:03:19.765Z,950.98
2018-04-22T18:04:19.398Z,950.96
2018-04-22T18:06:44.111Z,950.94
2018-04-22T18:07:43.952Z,950.97
2018-04-22T18:08:43.836Z,950.97
2018-04-22T18:09:51.942Z,951.01
2018-04-22T18:11:38.792Z,951.00
2018-04-22T18:14:19.825Z,951.02
2018-04-22T18:16:59.631Z,951.05
2018-04-22T18:18:09.508Z,951.05
2018-04-22T18:20:01.996Z,951.08
2018-04-22T18:20:53.543Z,951.04
2018-04-22T18:21:53.254Z,951.07
2018-04-22T18:22:53.885Z,951.10
2018-04-22T18:23:53.136Z,951.12
2018-04-22T18:24:53.291Z,951.16
2018-04-22T18:25:52.868Z,951.10
2018-04-22T18:26:52.906Z,951.13
2018-04-22T18:27:52.863Z,951.14
2018-04-22T18:28:53.084Z,951.12
2018-04-22T18:31:16.226Z,951.18
2018-04-22T18:32:16.862Z,951.17
2018-04-22T18:34:40.967Z,951.21
2018-04-22T18:35:39.065Z,951.21
2018-04-22T18:36:39.206Z,951.25
2018-04-22T18:37:39.389Z,951.21
2018-04-22T18:38:39.074Z,951.20
2018-04-22T18:39:39.036Z,951.22
2018-04-22T18:40:39.070Z,951.21
2018-04-22T18:41:39.033Z,951.24
2018-04-22T18:42:39.095Z,951.23
2018-04-22T18:43:39.056Z,951.25
2018-04-22T18:46:02.334Z,951.31
2018-04-22T18:47:03.538Z,951.35
2018-04-22T18:49:26.779Z,951.33
2018-04-22T18:50:27.022Z,951.34
2018-04-22T18:52:20.838Z,951.30
2018-04-22T18:53:29.570Z,951.34
2018-04-22T18:55:15.427Z,951.35
2018-04-22T18:56:15.099Z,951.36
2018-04-22T18:57:15.109Z,951.35
2018-04-22T18:58:15.151Z,951.33
2018-04-22T18:59:15.167Z,951.36
2018-04-22T19:00:14.975Z,951.38
2018-04-22T19:01:14.953Z,951.40
2018-04-22T19:02:14.949Z,951.42
2018-04-22T19:03:24.606Z,951.38
2018-04-22T19:05:09.963Z,951.43
2018-04-22T19:06:09.755Z,951.45
2018-04-22T19:07:09.711Z,951.47
2018-04-22T19:09:31.989Z,951.48
2018-04-22T19:11:56.891Z,951.52
2018-04-22T19:12:56.813Z,951.56
2018-04-22T19:13:57.173Z,951.54
2018-04-22T19:16:20.865Z,951.59
2018-04-22T19:17:20.914Z,951.59
2018-04-22T19:18:21.071Z,951.57
2018-04-22T19:19:22.596Z,951.58
